sensor_id;sensor_type;location;lat;lon;timestamp;noise_LAeq;noise_LA_min;noise_LA_max;noise_LA01;noise_LA95
41518;Laerm;27249;48.094;-1.690;2024-02-26T00:01:22;50.23;41.89;63.31;;
41518;Laerm;27249;48.094;-1.690;2024-02-26T00:03:47;50.64;42.03;59.69;;
41518;Laerm;27249;48.094;-1.690;2024-02-26T00:06:12;50.42;42.29;61.23;;
41518;Laerm;27249;48.094;-1.690;2024-02-26T00:08:37;51.35;42.09;63.22;;
41518;Laerm;27249;48.094;-1.690;2024-02-26T00:11:03;44.40;41.75;53.50;;
41518;Laerm;27249;48.094;-1.690;2024-02-26T00:13:28;47.18;41.82;59.72;;
41518;Laerm;27249;48.094;-1.690;2024-02-26T00:15:53;49.29;41.88;62.03;;
41518;Laerm;27249;48.094;-1.690;2024-02-26T00:18:18;53.69;41.75;65.75;;
41518;Laerm;27249;48.094;-1.690;2024-02-26T00:20:44;48.86;41.61;60.78;;
41518;Laerm;27249;48.094;-1.690;2024-02-26T00:23:09;48.68;43.29;65.70;;
41518;Laerm;27249;48.094;-1.690;2024-02-26T00:25:34;53.66;41.68;70.92;;
41518;Laerm;27249;48.094;-1.690;2024-02-26T00:28:01;43.76;40.43;62.63;;
41518;Laerm;27249;48.094;-1.690;2024-02-26T00:30:26;48.19;41.14;60.74;;
41518;Laerm;27249;48.094;-1.690;2024-02-26T00:32:51;44.03;41.38;65.09;;
41518;Laerm;27249;48.094;-1.690;2024-02-26T00:35:16;43.72;41.46;53.20;;
41518;Laerm;27249;48.094;-1.690;2024-02-26T00:37:45;44.45;41.61;58.04;;
41518;Laerm;27249;48.094;-1.690;2024-02-26T00:40:10;53.20;43.34;66.33;;
41518;Laerm;27249;48.094;-1.690;2024-02-26T00:42:36;51.23;41.68;62.91;;
41518;Laerm;27249;48.094;-1.690;2024-02-26T00:45:01;51.44;41.75;64.77;;
41518;Laerm;27249;48.094;-1.690;2024-02-26T00:47:26;47.05;41.82;57.83;;
41518;Laerm;27249;48.094;-1.690;2024-02-26T00:49:51;48.09;41.61;58.14;;
41518;Laerm;27249;48.094;-1.690;2024-02-26T00:52:17;48.57;42.09;59.03;;
41518;Laerm;27249;48.094;-1.690;2024-02-26T00:54:42;45.48;41.46;54.87;;
41518;Laerm;27249;48.094;-1.690;2024-02-26T00:57:08;43.78;41.53;56.74;;
41518;Laerm;27249;48.094;-1.690;2024-02-26T00:59:33;43.60;40.71;51.86;;
41518;Laerm;27249;48.094;-1.690;2024-02-26T01:01:58;43.62;41.22;50.52;;
41518;Laerm;27249;48.094;-1.690;2024-02-26T01:04:24;52.48;41.46;69.58;;
41518;Laerm;27249;48.094;-1.690;2024-02-26T01:06:50;49.10;40.98;61.38;;
41518;Laerm;27249;48.094;-1.690;2024-02-26T01:09:15;46.12;41.46;57.36;;
41518;Laerm;27249;48.094;-1.690;2024-02-26T01:11:42;52.84;41.61;65.55;;
41518;Laerm;27249;48.094;-1.690;2024-02-26T01:14:07;44.01;41.89;48.81;;
41518;Laerm;27249;48.094;-1.690;2024-02-26T01:16:33;51.30;41.46;66.06;;
41518;Laerm;27249;48.094;-1.690;2024-02-26T01:18:58;48.75;41.96;64.67;;
41518;Laerm;27249;48.094;-1.690;2024-02-26T01:21:23;46.42;41.89;55.45;;
41518;Laerm;27249;48.094;-1.690;2024-02-26T01:23:49;44.02;41.68;49.77;;
41518;Laerm;27249;48.094;-1.690;2024-02-26T01:26:14;47.12;41.30;60.89;;
41518;Laerm;27249;48.094;-1.690;2024-02-26T01:28:39;44.48;41.82;55.76;;
41518;Laerm;27249;48.094;-1.690;2024-02-26T01:31:04;47.10;41.06;60.14;;
41518;Laerm;27249;48.094;-1.690;2024-02-26T01:33:32;49.96;41.30;61.44;;
41518;Laerm;27249;48.094;-1.690;2024-02-26T01:35:58;43.85;41.46;46.82;;
41518;Laerm;27249;48.094;-1.690;2024-02-26T01:38:23;43.92;41.22;55.03;;
41518;Laerm;27249;48.094;-1.690;2024-02-26T01:40:48;47.98;41.46;60.27;;
41518;Laerm;27249;48.094;-1.690;2024-02-26T01:43:13;46.08;41.06;58.39;;
41518;Laerm;27249;48.094;-1.690;2024-02-26T01:45:38;48.18;40.98;58.96;;
41518;Laerm;27249;48.094;-1.690;2024-02-26T01:48:04;47.60;40.89;61.39;;
41518;Laerm;27249;48.094;-1.690;2024-02-26T01:50:29;51.21;41.06;65.96;;
41518;Laerm;27249;48.094;-1.690;2024-02-26T01:52:54;43.77;41.46;48.46;;
41518;Laerm;27249;48.094;-1.690;2024-02-26T01:55:21;44.56;41.30;51.81;;
41518;Laerm;27249;48.094;-1.690;2024-02-26T01:57:47;44.31;40.53;54.72;;
41518;Laerm;27249;48.094;-1.690;2024-02-26T02:00:13;43.69;40.98;47.54;;
41518;Laerm;27249;48.094;-1.690;2024-02-26T02:02:39;44.15;41.96;48.00;;
41518;Laerm;27249;48.094;-1.690;2024-02-26T02:05:06;47.48;42.03;58.08;;
41518;Laerm;27249;48.094;-1.690;2024-02-26T02:07:32;48.18;42.41;58.52;;
41518;Laerm;27249;48.094;-1.690;2024-02-26T02:09:59;48.73;41.89;58.69;;
41518;Laerm;27249;48.094;-1.690;2024-02-26T02:12:25;47.60;41.75;59.04;;
41518;Laerm;27249;48.094;-1.690;2024-02-26T02:14:50;48.30;41.53;60.38;;
41518;Laerm;27249;48.094;-1.690;2024-02-26T02:17:15;46.04;41.22;59.50;;
41518;Laerm;27249;48.094;-1.690;2024-02-26T02:19:41;52.12;41.30;65.68;;
41518;Laerm;27249;48.094;-1.690;2024-02-26T02:22:06;43.58;41.22;52.56;;
41518;Laerm;27249;48.094;-1.690;2024-02-26T02:24:31;43.76;40.98;60.55;;
41518;Laerm;27249;48.094;-1.690;2024-02-26T02:26:56;45.84;41.30;65.85;;
41518;Laerm;27249;48.094;-1.690;2024-02-26T02:29:21;43.86;41.96;48.12;;
41518;Laerm;27249;48.094;-1.690;2024-02-26T02:31:47;47.12;41.96;61.42;;
41518;Laerm;27249;48.094;-1.690;2024-02-26T02:34:12;50.55;41.38;65.62;;
41518;Laerm;27249;48.094;-1.690;2024-02-26T02:36:48;46.49;41.48;57.92;;
41518;Laerm;27249;48.094;-1.690;2024-02-26T02:39:13;49.36;40.89;60.90;;
41518;Laerm;27249;48.094;-1.690;2024-02-26T02:41:38;44.37;41.14;61.29;;
41518;Laerm;27249;48.094;-1.690;2024-02-26T02:44:03;48.84;41.06;60.41;;
41518;Laerm;27249;48.094;-1.690;2024-02-26T02:46:29;46.88;41.81;59.34;;
41518;Laerm;27249;48.094;-1.690;2024-02-26T02:48:54;43.76;41.14;51.80;;
41518;Laerm;27249;48.094;-1.690;2024-02-26T02:51:19;47.78;41.61;59.14;;
41518;Laerm;27249;48.094;-1.690;2024-02-26T02:53:44;46.11;41.53;59.39;;
41518;Laerm;27249;48.094;-1.690;2024-02-26T02:56:10;48.68;41.46;61.21;;
41518;Laerm;27249;48.094;-1.690;2024-02-26T02:58:35;43.70;41.22;48.91;;
41518;Laerm;27249;48.094;-1.690;2024-02-26T03:01:00;43.77;41.14;48.10;;
41518;Laerm;27249;48.094;-1.690;2024-02-26T03:03:25;50.60;41.89;62.62;;
41518;Laerm;27249;48.094;-1.690;2024-02-26T03:05:53;48.93;42.41;62.18;;
41518;Laerm;27249;48.094;-1.690;2024-02-26T03:08:18;52.56;42.76;65.28;;
41518;Laerm;27249;48.094;-1.690;2024-02-26T03:10:44;44.39;42.16;48.91;;
41518;Laerm;27249;48.094;-1.690;2024-02-26T03:13:09;48.84;42.41;63.77;;
41518;Laerm;27249;48.094;-1.690;2024-02-26T03:15:34;47.86;42.47;58.61;;
41518;Laerm;27249;48.094;-1.690;2024-02-26T03:18:00;52.19;41.96;62.94;;
41518;Laerm;27249;48.094;-1.690;2024-02-26T03:20:25;45.10;41.46;51.25;;
41518;Laerm;27249;48.094;-1.690;2024-02-26T03:22:50;52.75;42.22;61.95;;
41518;Laerm;27249;48.094;-1.690;2024-02-26T03:25:15;53.84;42.35;65.02;;
41518;Laerm;27249;48.094;-1.690;2024-02-26T03:27:40;46.99;41.46;60.91;;
41518;Laerm;27249;48.094;-1.690;2024-02-26T03:30:06;51.60;41.75;61.86;;
41518;Laerm;27249;48.094;-1.690;2024-02-26T03:32:31;51.56;42.03;63.60;;
41518;Laerm;27249;48.094;-1.690;2024-02-26T03:34:56;44.37;41.68;49.74;;
41518;Laerm;27249;48.094;-1.690;2024-02-26T03:37:22;48.16;41.46;58.74;;
41518;Laerm;27249;48.094;-1.690;2024-02-26T03:39:47;52.62;42.22;64.94;;
41518;Laerm;27249;48.094;-1.690;2024-02-26T03:42:12;55.25;41.82;66.55;;
41518;Laerm;27249;48.094;-1.690;2024-02-26T03:44:37;53.66;41.89;65.96;;
41518;Laerm;27249;48.094;-1.690;2024-02-26T03:47:03;51.27;42.41;62.29;;
41518;Laerm;27249;48.094;-1.690;2024-02-26T03:49:28;58.17;42.59;76.27;;
41518;Laerm;27249;48.094;-1.690;2024-02-26T03:51:53;49.12;41.96;58.36;;
41518;Laerm;27249;48.094;-1.690;2024-02-26T03:54:19;50.90;42.22;62.66;;
41518;Laerm;27249;48.094;-1.690;2024-02-26T03:56:44;44.39;41.82;53.69;;
41518;Laerm;27249;48.094;-1.690;2024-02-26T03:59:09;52.55;42.47;62.96;;
41518;Laerm;27249;48.094;-1.690;2024-02-26T04:01:34;50.97;41.46;64.80;;
41518;Laerm;27249;48.094;-1.690;2024-02-26T04:04:00;50.22;42.03;62.94;;
41518;Laerm;27249;48.094;-1.690;2024-02-26T04:06:25;45.43;41.89;56.29;;
41518;Laerm;27249;48.094;-1.690;2024-02-26T04:08:50;49.25;42.09;62.21;;
41518;Laerm;27249;48.094;-1.690;2024-02-26T04:11:15;50.01;42.98;60.31;;
41518;Laerm;27249;48.094;-1.690;2024-02-26T04:13:46;49.68;42.59;62.43;;
41518;Laerm;27249;48.094;-1.690;2024-02-26T04:16:14;53.57;42.65;66.79;;
41518;Laerm;27249;48.094;-1.690;2024-02-26T04:18:39;48.14;42.59;62.42;;
41518;Laerm;27249;48.094;-1.690;2024-02-26T04:21:05;51.31;42.71;63.16;;
41518;Laerm;27249;48.094;-1.690;2024-02-26T04:23:32;47.26;42.29;58.94;;
41518;Laerm;27249;48.094;-1.690;2024-02-26T04:25:57;48.19;42.47;61.60;;
41518;Laerm;27249;48.094;-1.690;2024-02-26T04:28:22;51.46;42.53;59.52;;
41518;Laerm;27249;48.094;-1.690;2024-02-26T04:30:50;54.62;43.58;66.47;;
41518;Laerm;27249;48.094;-1.690;2024-02-26T04:33:15;50.93;43.44;60.37;;
41518;Laerm;27249;48.094;-1.690;2024-02-26T04:35:41;55.53;44.03;65.33;;
41518;Laerm;27249;48.094;-1.690;2024-02-26T04:38:08;49.00;42.29;63.65;;
41518;Laerm;27249;48.094;-1.690;2024-02-26T04:40:33;53.30;42.65;68.01;;
41518;Laerm;27249;48.094;-1.690;2024-02-26T04:42:58;50.21;43.34;60.10;;
41518;Laerm;27249;48.094;-1.690;2024-02-26T04:45:23;52.90;43.09;64.01;;
41518;Laerm;27249;48.094;-1.690;2024-02-26T04:47:49;53.34;43.04;63.01;;
41518;Laerm;27249;48.094;-1.690;2024-02-26T04:50:14;52.27;42.76;61.16;;
41518;Laerm;27249;48.094;-1.690;2024-02-26T04:52:39;51.13;43.24;64.33;;
41518;Laerm;27249;48.094;-1.690;2024-02-26T04:55:05;54.37;44.35;66.55;;
41518;Laerm;27249;48.094;-1.690;2024-02-26T04:57:31;54.66;43.63;65.18;;
41518;Laerm;27249;48.094;-1.690;2024-02-26T04:59:56;54.73;43.72;65.01;;
41518;Laerm;27249;48.094;-1.690;2024-02-26T05:02:21;52.27;42.29;69.69;;
41518;Laerm;27249;48.094;-1.690;2024-02-26T05:04:46;53.46;42.65;62.60;;
41518;Laerm;27249;48.094;-1.690;2024-02-26T05:07:12;51.62;42.98;62.65;;
41518;Laerm;27249;48.094;-1.690;2024-02-26T05:09:37;52.57;42.35;65.88;;
41518;Laerm;27249;48.094;-1.690;2024-02-26T05:12:02;54.31;44.43;63.80;;
41518;Laerm;27249;48.094;-1.690;2024-02-26T05:14:28;50.58;43.14;60.03;;
41518;Laerm;27249;48.094;-1.690;2024-02-26T05:16:54;55.96;45.20;64.18;;
41518;Laerm;27249;48.094;-1.690;2024-02-26T05:19:19;50.96;44.23;61.00;;
41518;Laerm;27249;48.094;-1.690;2024-02-26T05:21:44;53.55;43.90;63.72;;
41518;Laerm;27249;48.094;-1.690;2024-02-26T05:24:10;53.99;44.58;63.09;;
41518;Laerm;27249;48.094;-1.690;2024-02-26T05:26:35;54.35;44.07;65.21;;
41518;Laerm;27249;48.094;-1.690;2024-02-26T05:29:00;54.79;43.81;63.00;;
41518;Laerm;27249;48.094;-1.690;2024-02-26T05:31:26;51.54;43.34;66.59;;
41518;Laerm;27249;48.094;-1.690;2024-02-26T05:33:52;55.10;43.29;64.49;;
41518;Laerm;27249;48.094;-1.690;2024-02-26T05:36:18;53.24;43.54;62.89;;
41518;Laerm;27249;48.094;-1.690;2024-02-26T05:38:43;58.53;45.04;72.19;;
41518;Laerm;27249;48.094;-1.690;2024-02-26T05:41:11;54.78;44.76;64.36;;
41518;Laerm;27249;48.094;-1.690;2024-02-26T05:43:36;54.41;44.43;64.89;;
41518;Laerm;27249;48.094;-1.690;2024-02-26T05:46:01;56.72;46.02;64.54;;
41518;Laerm;27249;48.094;-1.690;2024-02-26T05:48:26;57.60;47.65;67.49;;
41518;Laerm;27249;48.094;-1.690;2024-02-26T05:50:52;55.08;46.02;66.16;;
41518;Laerm;27249;48.094;-1.690;2024-02-26T05:53:17;58.34;45.48;67.15;;
41518;Laerm;27249;48.094;-1.690;2024-02-26T05:55:42;57.44;47.08;66.01;;
41518;Laerm;27249;48.094;-1.690;2024-02-26T05:58:07;57.51;45.17;65.84;;
41518;Laerm;27249;48.094;-1.690;2024-02-26T06:00:33;58.19;48.12;68.24;;
41518;Laerm;27249;48.094;-1.690;2024-02-26T06:02:58;56.14;46.82;66.15;;
41518;Laerm;27249;48.094;-1.690;2024-02-26T06:05:23;59.20;46.10;68.54;;
41518;Laerm;27249;48.094;-1.690;2024-02-26T06:07:48;58.11;49.80;65.78;;
41518;Laerm;27249;48.094;-1.690;2024-02-26T06:10:14;58.00;46.35;68.39;;
41518;Laerm;27249;48.094;-1.690;2024-02-26T06:12:39;54.94;47.59;64.10;;
41518;Laerm;27249;48.094;-1.690;2024-02-26T06:15:05;57.45;47.40;65.99;;
41518;Laerm;27249;48.094;-1.690;2024-02-26T06:17:30;58.32;49.43;66.35;;
41518;Laerm;27249;48.094;-1.690;2024-02-26T06:19:55;57.83;49.50;68.34;;
41518;Laerm;27249;48.094;-1.690;2024-02-26T06:22:21;59.64;51.56;66.22;;
41518;Laerm;27249;48.094;-1.690;2024-02-26T06:24:46;59.43;52.17;66.88;;
41518;Laerm;27249;48.094;-1.690;2024-02-26T06:27:11;59.92;51.62;65.92;;
41518;Laerm;27249;48.094;-1.690;2024-02-26T06:29:37;58.46;48.07;67.49;;
41518;Laerm;27249;48.094;-1.690;2024-02-26T06:32:02;58.32;48.04;64.61;;
41518;Laerm;27249;48.094;-1.690;2024-02-26T06:34:28;59.08;49.81;70.91;;
41518;Laerm;27249;48.094;-1.690;2024-02-26T06:36:53;59.43;48.76;66.81;;
41518;Laerm;27249;48.094;-1.690;2024-02-26T06:39:18;59.03;51.18;66.01;;
41518;Laerm;27249;48.094;-1.690;2024-02-26T06:41:44;58.76;50.48;66.07;;
41518;Laerm;27249;48.094;-1.690;2024-02-26T06:44:11;58.45;52.64;64.79;;
41518;Laerm;27249;48.094;-1.690;2024-02-26T06:46:37;60.82;50.98;67.11;;
41518;Laerm;27249;48.094;-1.690;2024-02-26T06:49:02;58.13;50.94;65.38;;
41518;Laerm;27249;48.094;-1.690;2024-02-26T06:51:27;59.64;50.22;66.88;;
41518;Laerm;27249;48.094;-1.690;2024-02-26T06:53:52;60.39;53.53;71.41;;
41518;Laerm;27249;48.094;-1.690;2024-02-26T06:56:18;59.40;50.73;65.70;;
41518;Laerm;27249;48.094;-1.690;2024-02-26T06:58:43;60.02;49.93;71.64;;
41518;Laerm;27249;48.094;-1.690;2024-02-26T07:01:09;59.99;51.06;70.31;;
41518;Laerm;27249;48.094;-1.690;2024-02-26T07:03:35;59.99;54.36;68.91;;
41518;Laerm;27249;48.094;-1.690;2024-02-26T07:06:00;60.72;52.17;68.15;;
41518;Laerm;27249;48.094;-1.690;2024-02-26T07:08:25;60.27;55.37;70.15;;
41518;Laerm;27249;48.094;-1.690;2024-02-26T07:10:50;60.87;51.79;71.90;;
41518;Laerm;27249;48.094;-1.690;2024-02-26T07:13:16;61.03;55.29;70.69;;
41518;Laerm;27249;48.094;-1.690;2024-02-26T07:15:42;60.78;53.69;68.72;;
41518;Laerm;27249;48.094;-1.690;2024-02-26T07:18:07;62.06;54.18;70.46;;
41518;Laerm;27249;48.094;-1.690;2024-02-26T07:20:33;61.01;54.77;67.35;;
41518;Laerm;27249;48.094;-1.690;2024-02-26T07:22:58;61.81;57.17;67.44;;
41518;Laerm;27249;48.094;-1.690;2024-02-26T07:25:23;59.37;51.93;65.57;;
41518;Laerm;27249;48.094;-1.690;2024-02-26T07:27:49;62.23;53.42;69.93;;
41518;Laerm;27249;48.094;-1.690;2024-02-26T07:30:14;61.13;54.94;67.49;;
41518;Laerm;27249;48.094;-1.690;2024-02-26T07:32:41;64.44;54.72;91.71;;
41518;Laerm;27249;48.094;-1.690;2024-02-26T07:35:06;61.41;54.97;67.51;;
41518;Laerm;27249;48.094;-1.690;2024-02-26T07:37:31;61.51;56.12;69.20;;
41518;Laerm;27249;48.094;-1.690;2024-02-26T07:39:57;61.86;56.36;76.40;;
41518;Laerm;27249;48.094;-1.690;2024-02-26T07:42:22;62.04;54.51;69.07;;
41518;Laerm;27249;48.094;-1.690;2024-02-26T07:44:47;61.56;56.13;67.58;;
41518;Laerm;27249;48.094;-1.690;2024-02-26T07:47:12;60.87;55.89;67.31;;
41518;Laerm;27249;48.094;-1.690;2024-02-26T07:49:38;60.76;55.28;71.15;;
41518;Laerm;27249;48.094;-1.690;2024-02-26T07:52:03;60.93;54.09;76.30;;
41518;Laerm;27249;48.094;-1.690;2024-02-26T07:54:28;60.29;53.23;67.66;;
41518;Laerm;27249;48.094;-1.690;2024-02-26T07:56:54;60.51;52.48;73.16;;
41518;Laerm;27249;48.094;-1.690;2024-02-26T07:59:19;61.04;53.74;68.32;;
41518;Laerm;27249;48.094;-1.690;2024-02-26T08:01:48;59.91;55.04;69.81;;
41518;Laerm;27249;48.094;-1.690;2024-02-26T08:04:14;60.48;52.40;68.08;;
41518;Laerm;27249;48.094;-1.690;2024-02-26T08:06:39;61.24;56.22;69.46;;
41518;Laerm;27249;48.094;-1.690;2024-02-26T08:09:04;60.33;55.04;66.11;;
41518;Laerm;27249;48.094;-1.690;2024-02-26T08:11:29;59.23;51.77;66.50;;
41518;Laerm;27249;48.094;-1.690;2024-02-26T08:13:55;59.75;52.54;68.23;;
41518;Laerm;27249;48.094;-1.690;2024-02-26T08:16:20;60.75;54.56;65.63;;
41518;Laerm;27249;48.094;-1.690;2024-02-26T08:18:45;60.05;52.88;65.01;;
41518;Laerm;27249;48.094;-1.690;2024-02-26T08:21:10;58.33;49.62;63.55;;
41518;Laerm;27249;48.094;-1.690;2024-02-26T08:23:36;59.25;51.84;70.26;;
41518;Laerm;27249;48.094;-1.690;2024-02-26T08:26:01;59.99;52.94;67.25;;
41518;Laerm;27249;48.094;-1.690;2024-02-26T08:28:26;59.78;50.58;65.04;;
41518;Laerm;27249;48.094;-1.690;2024-02-26T08:30:51;58.39;48.28;64.94;;
41518;Laerm;27249;48.094;-1.690;2024-02-26T08:33:16;58.85;53.58;66.04;;
41518;Laerm;27249;48.094;-1.690;2024-02-26T08:35:43;58.94;52.02;67.76;;
41518;Laerm;27249;48.094;-1.690;2024-02-26T08:38:08;59.98;53.76;71.95;;
41518;Laerm;27249;48.094;-1.690;2024-02-26T08:40:34;59.38;53.38;70.46;;
41518;Laerm;27249;48.094;-1.690;2024-02-26T08:42:59;59.20;54.18;65.36;;
41518;Laerm;27249;48.094;-1.690;2024-02-26T08:45:24;59.38;49.51;67.39;;
41518;Laerm;27249;48.094;-1.690;2024-02-26T08:47:52;60.25;54.02;71.35;;
41518;Laerm;27249;48.094;-1.690;2024-02-26T08:50:17;60.18;54.03;65.88;;
41518;Laerm;27249;48.094;-1.690;2024-02-26T08:52:42;61.02;53.11;66.36;;
41518;Laerm;27249;48.094;-1.690;2024-02-26T08:55:08;60.62;54.81;69.52;;
41518;Laerm;27249;48.094;-1.690;2024-02-26T08:57:34;62.11;57.73;69.21;;
41518;Laerm;27249;48.094;-1.690;2024-02-26T08:59:59;61.37;55.71;67.19;;
41518;Laerm;27249;48.094;-1.690;2024-02-26T09:02:25;60.24;53.18;68.24;;
41518;Laerm;27249;48.094;-1.690;2024-02-26T09:04:50;59.75;53.82;67.80;;
41518;Laerm;27249;48.094;-1.690;2024-02-26T09:07:18;60.17;53.93;72.83;;
41518;Laerm;27249;48.094;-1.690;2024-02-26T09:09:43;60.77;51.96;74.55;;
41518;Laerm;27249;48.094;-1.690;2024-02-26T09:12:09;60.97;52.19;74.27;;
41518;Laerm;27249;48.094;-1.690;2024-02-26T09:14:34;59.80;52.29;65.89;;
41518;Laerm;27249;48.094;-1.690;2024-02-26T09:16:59;60.57;52.41;68.68;;
41518;Laerm;27249;48.094;-1.690;2024-02-26T09:19:25;60.02;52.13;67.19;;
41518;Laerm;27249;48.094;-1.690;2024-02-26T09:21:51;60.10;51.89;68.70;;
41518;Laerm;27249;48.094;-1.690;2024-02-26T09:24:16;61.29;54.77;73.95;;
41518;Laerm;27249;48.094;-1.690;2024-02-26T09:26:41;60.48;53.16;66.22;;
41518;Laerm;27249;48.094;-1.690;2024-02-26T09:29:06;59.00;52.95;64.42;;
41518;Laerm;27249;48.094;-1.690;2024-02-26T09:31:33;61.25;52.60;67.13;;
41518;Laerm;27249;48.094;-1.690;2024-02-26T09:33:59;58.77;52.58;68.46;;
41518;Laerm;27249;48.094;-1.690;2024-02-26T09:36:24;60.41;53.34;66.53;;
41518;Laerm;27249;48.094;-1.690;2024-02-26T09:38:49;60.21;54.38;68.41;;
41518;Laerm;27249;48.094;-1.690;2024-02-26T09:41:14;59.40;52.68;65.17;;
41518;Laerm;27249;48.094;-1.690;2024-02-26T09:43:44;59.56;53.24;71.14;;
41518;Laerm;27249;48.094;-1.690;2024-02-26T09:46:11;60.71;52.17;73.77;;
41518;Laerm;27249;48.094;-1.690;2024-02-26T09:48:36;60.92;54.47;71.06;;
41518;Laerm;27249;48.094;-1.690;2024-02-26T09:51:02;65.17;55.19;97.51;;
41518;Laerm;27249;48.094;-1.690;2024-02-26T09:53:29;60.71;53.97;67.58;;
41518;Laerm;27249;48.094;-1.690;2024-02-26T09:55:54;59.28;51.34;68.25;;
41518;Laerm;27249;48.094;-1.690;2024-02-26T09:58:19;59.79;53.55;72.67;;
41518;Laerm;27249;48.094;-1.690;2024-02-26T10:00:46;59.43;51.91;71.70;;
41518;Laerm;27249;48.094;-1.690;2024-02-26T10:03:15;58.78;51.40;72.54;;
41518;Laerm;27249;48.094;-1.690;2024-02-26T10:05:40;59.41;53.08;67.59;;
41518;Laerm;27249;48.094;-1.690;2024-02-26T10:08:06;59.87;52.99;66.96;;
41518;Laerm;27249;48.094;-1.690;2024-02-26T10:10:31;59.94;51.06;76.33;;
41518;Laerm;27249;48.094;-1.690;2024-02-26T10:12:58;59.90;53.82;70.70;;
41518;Laerm;27249;48.094;-1.690;2024-02-26T10:15:24;59.02;52.05;71.92;;
41518;Laerm;27249;48.094;-1.690;2024-02-26T10:17:49;59.92;54.56;68.04;;
41518;Laerm;27249;48.094;-1.690;2024-02-26T10:20:15;59.26;53.00;67.40;;
41518;Laerm;27249;48.094;-1.690;2024-02-26T10:22:41;58.81;52.29;68.38;;
41518;Laerm;27249;48.094;-1.690;2024-02-26T10:25:07;60.35;54.48;70.66;;
41518;Laerm;27249;48.094;-1.690;2024-02-26T10:27:33;61.40;55.48;70.67;;
41518;Laerm;27249;48.094;-1.690;2024-02-26T10:29:58;60.26;51.75;82.22;;
41518;Laerm;27249;48.094;-1.690;2024-02-26T10:32:27;60.65;53.15;72.65;;
41518;Laerm;27249;48.094;-1.690;2024-02-26T10:34:55;60.15;52.28;70.45;;
41518;Laerm;27249;48.094;-1.690;2024-02-26T10:37:21;60.09;52.81;82.29;;
41518;Laerm;27249;48.094;-1.690;2024-02-26T10:39:47;58.99;52.86;64.78;;
41518;Laerm;27249;48.094;-1.690;2024-02-26T10:42:12;59.28;53.64;66.38;;
41518;Laerm;27249;48.094;-1.690;2024-02-26T10:44:39;59.15;52.97;71.00;;
41518;Laerm;27249;48.094;-1.690;2024-02-26T10:47:05;60.33;52.23;67.59;;
41518;Laerm;27249;48.094;-1.690;2024-02-26T10:49:30;59.88;53.59;70.92;;
41518;Laerm;27249;48.094;-1.690;2024-02-26T10:51:56;60.05;53.71;84.00;;
41518;Laerm;27249;48.094;-1.690;2024-02-26T10:54:22;59.89;53.33;74.61;;
41518;Laerm;27249;48.094;-1.690;2024-02-26T10:56:48;61.60;55.95;78.08;;
41518;Laerm;27249;48.094;-1.690;2024-02-26T10:59:14;59.79;52.04;66.56;;
41518;Laerm;27249;48.094;-1.690;2024-02-26T11:01:45;58.48;51.05;66.84;;
41518;Laerm;27249;48.094;-1.690;2024-02-26T11:04:12;60.43;53.93;73.68;;
41518;Laerm;27249;48.094;-1.690;2024-02-26T11:06:38;68.67;54.94;82.21;;
41518;Laerm;27249;48.094;-1.690;2024-02-26T11:09:03;61.79;56.75;68.47;;
41518;Laerm;27249;48.094;-1.690;2024-02-26T11:11:32;61.80;56.28;68.20;;
41518;Laerm;27249;48.094;-1.690;2024-02-26T11:14:00;60.69;55.20;69.55;;
41518;Laerm;27249;48.094;-1.690;2024-02-26T11:16:26;61.84;53.22;74.83;;
41518;Laerm;27249;48.094;-1.690;2024-02-26T11:18:53;60.22;54.27;70.73;;
41518;Laerm;27249;48.094;-1.690;2024-02-26T11:21:20;60.43;52.70;69.95;;
41518;Laerm;27249;48.094;-1.690;2024-02-26T11:23:52;61.10;55.39;68.26;;
41518;Laerm;27249;48.094;-1.690;2024-02-26T11:26:18;61.24;53.16;66.79;;
41518;Laerm;27249;48.094;-1.690;2024-02-26T11:28:45;60.90;53.72;70.74;;
41518;Laerm;27249;48.094;-1.690;2024-02-26T11:31:10;61.17;54.34;77.94;;
41518;Laerm;27249;48.094;-1.690;2024-02-26T11:33:37;60.99;53.47;71.81;;
41518;Laerm;27249;48.094;-1.690;2024-02-26T11:36:07;60.42;54.04;70.94;;
41518;Laerm;27249;48.094;-1.690;2024-02-26T11:38:33;61.64;55.99;74.77;;
41518;Laerm;27249;48.094;-1.690;2024-02-26T11:40:59;60.57;53.45;73.19;;
41518;Laerm;27249;48.094;-1.690;2024-02-26T11:46:24;60.10;53.55;74.43;;
41518;Laerm;27249;48.094;-1.690;2024-02-26T11:48:49;60.11;51.76;68.05;;
41518;Laerm;27249;48.094;-1.690;2024-02-26T11:51:15;60.04;54.76;74.39;;
41518;Laerm;27249;48.094;-1.690;2024-02-26T11:53:46;59.87;52.06;70.88;;
41518;Laerm;27249;48.094;-1.690;2024-02-26T11:58:53;60.64;55.25;72.93;;
41518;Laerm;27249;48.094;-1.690;2024-02-26T12:04:18;60.24;54.32;67.99;;
41518;Laerm;27249;48.094;-1.690;2024-02-26T12:06:51;61.02;54.58;73.76;;
41518;Laerm;27249;48.094;-1.690;2024-02-26T12:09:33;60.19;53.82;74.38;;
41518;Laerm;27249;48.094;-1.690;2024-02-26T12:12:00;59.24;54.54;72.36;;
41518;Laerm;27249;48.094;-1.690;2024-02-26T12:14:26;59.40;54.18;69.25;;
41518;Laerm;27249;48.094;-1.690;2024-02-26T12:16:52;62.20;53.74;81.53;;
41518;Laerm;27249;48.094;-1.690;2024-02-26T12:19:17;60.76;53.99;83.00;;
41518;Laerm;27249;48.094;-1.690;2024-02-26T12:21:43;59.19;52.32;69.20;;
41518;Laerm;27249;48.094;-1.690;2024-02-26T12:24:12;60.23;53.68;69.51;;
41518;Laerm;27249;48.094;-1.690;2024-02-26T12:26:38;60.70;52.64;70.87;;
41518;Laerm;27249;48.094;-1.690;2024-02-26T12:29:04;59.60;52.71;67.55;;
41518;Laerm;27249;48.094;-1.690;2024-02-26T12:31:29;61.14;54.97;74.99;;
41518;Laerm;27249;48.094;-1.690;2024-02-26T12:33:56;61.41;55.10;73.33;;
41518;Laerm;27249;48.094;-1.690;2024-02-26T12:36:21;59.84;50.36;68.94;;
41518;Laerm;27249;48.094;-1.690;2024-02-26T12:38:48;61.38;54.80;74.34;;
41518;Laerm;27249;48.094;-1.690;2024-02-26T12:41:13;61.22;56.58;67.30;;
41518;Laerm;27249;48.094;-1.690;2024-02-26T12:43:39;61.11;52.24;78.12;;
41518;Laerm;27249;48.094;-1.690;2024-02-26T12:46:04;60.99;52.83;71.25;;
41518;Laerm;27249;48.094;-1.690;2024-02-26T12:48:30;60.84;55.23;74.57;;
41518;Laerm;27249;48.094;-1.690;2024-02-26T12:50:55;59.46;51.95;65.45;;
41518;Laerm;27249;48.094;-1.690;2024-02-26T12:53:21;60.16;54.79;71.23;;
41518;Laerm;27249;48.094;-1.690;2024-02-26T12:55:47;60.23;53.29;69.70;;
41518;Laerm;27249;48.094;-1.690;2024-02-26T12:58:12;59.53;52.96;71.65;;
41518;Laerm;27249;48.094;-1.690;2024-02-26T13:00:38;60.76;53.53;70.18;;
41518;Laerm;27249;48.094;-1.690;2024-02-26T13:03:03;59.53;53.70;72.71;;
41518;Laerm;27249;48.094;-1.690;2024-02-26T13:05:29;59.82;53.41;68.24;;
41518;Laerm;27249;48.094;-1.690;2024-02-26T13:07:55;60.59;54.43;76.11;;
41518;Laerm;27249;48.094;-1.690;2024-02-26T13:10:20;61.13;53.69;68.75;;
41518;Laerm;27249;48.094;-1.690;2024-02-26T13:12:47;60.43;53.07;69.14;;
41518;Laerm;27249;48.094;-1.690;2024-02-26T13:15:19;59.83;51.60;67.66;;
41518;Laerm;27249;48.094;-1.690;2024-02-26T13:17:45;60.26;55.59;66.88;;
41518;Laerm;27249;48.094;-1.690;2024-02-26T13:20:10;62.01;55.17;75.53;;
41518;Laerm;27249;48.094;-1.690;2024-02-26T13:22:36;61.85;54.27;77.25;;
41518;Laerm;27249;48.094;-1.690;2024-02-26T13:25:01;59.75;53.11;76.99;;
41518;Laerm;27249;48.094;-1.690;2024-02-26T13:27:32;60.66;55.23;71.05;;
41518;Laerm;27249;48.094;-1.690;2024-02-26T13:30:04;60.41;54.72;69.35;;
41518;Laerm;27249;48.094;-1.690;2024-02-26T13:32:33;61.73;55.80;79.88;;